sensor_id;sensor_type;location;lat;lon;timestamp;P1;durP1;ratioP1;P2;durP2;ratioP2
9809;SDS011;4944;52.514;13.192;2022-12-29T00:00:18;1.77;;;1.67;;
9809;SDS011;4944;52.514;13.192;2022-12-29T00:02:47;1.23;;;1.20;;
9809;SDS011;4944;52.514;13.192;2022-12-29T00:05:13;2.00;;;1.50;;
9809;SDS011;4944;52.514;13.192;2022-12-29T00:07:40;1.47;;;1.37;;
9809;SDS011;4944;52.514;13.192;2022-12-29T00:10:07;2.30;;;1.13;;
9809;SDS011;4944;52.514;13.192;2022-12-29T00:12:34;1.50;;;1.40;;
9809;SDS011;4944;52.514;13.192;2022-12-29T00:15:19;1.60;;;1.23;;
9809;SDS011;4944;52.514;13.192;2022-12-29T00:18:05;0.90;;;0.90;;
9809;SDS011;4944;52.514;13.192;2022-12-29T00:20:33;1.40;;;1.30;;
9809;SDS011;4944;52.514;13.192;2022-12-29T00:23:32;1.60;;;1.50;;
9809;SDS011;4944;52.514;13.192;2022-12-29T00:26:16;2.60;;;1.30;;
9809;SDS011;4944;52.514;13.192;2022-12-29T00:29:00;1.47;;;1.20;;
9809;SDS011;4944;52.514;13.192;2022-12-29T00:31:45;1.67;;;1.30;;
9809;SDS011;4944;52.514;13.192;2022-12-29T00:34:30;1.63;;;1.50;;
9809;SDS011;4944;52.514;13.192;2022-12-29T00:37:14;1.60;;;1.47;;
9809;SDS011;4944;52.514;13.192;2022-12-29T00:39:42;1.30;;;1.30;;
9809;SDS011;4944;52.514;13.192;2022-12-29T00:42:26;2.10;;;1.30;;
9809;SDS011;4944;52.514;13.192;2022-12-29T00:45:10;1.50;;;1.40;;
9809;SDS011;4944;52.514;13.192;2022-12-29T00:47:37;1.70;;;1.60;;
9809;SDS011;4944;52.514;13.192;2022-12-29T00:50:06;2.47;;;1.40;;
9809;SDS011;4944;52.514;13.192;2022-12-29T00:52:32;1.20;;;1.10;;
9809;SDS011;4944;52.514;13.192;2022-12-29T00:54:59;1.20;;;1.10;;
9809;SDS011;4944;52.514;13.192;2022-12-29T00:57:26;1.70;;;1.30;;
9809;SDS011;4944;52.514;13.192;2022-12-29T00:59:53;1.20;;;1.10;;
9809;SDS011;4944;52.514;13.192;2022-12-29T01:02:19;1.13;;;1.10;;
9809;SDS011;4944;52.514;13.192;2022-12-29T01:04:46;2.40;;;1.20;;
9809;SDS011;4944;52.514;13.192;2022-12-29T01:07:15;1.27;;;1.17;;
9809;SDS011;4944;52.514;13.192;2022-12-29T01:09:41;1.30;;;1.20;;
9809;SDS011;4944;52.514;13.192;2022-12-29T01:12:26;1.53;;;1.10;;
9809;SDS011;4944;52.514;13.192;2022-12-29T01:15:10;1.17;;;1.17;;
9809;SDS011;4944;52.514;13.192;2022-12-29T01:17:38;1.00;;;1.00;;
9809;SDS011;4944;52.514;13.192;2022-12-29T01:20:06;1.30;;;1.20;;
9809;SDS011;4944;52.514;13.192;2022-12-29T01:22:34;1.73;;;1.20;;
9809;SDS011;4944;52.514;13.192;2022-12-29T01:25:01;1.20;;;1.03;;
9809;SDS011;4944;52.514;13.192;2022-12-29T01:27:28;1.20;;;1.20;;
9809;SDS011;4944;52.514;13.192;2022-12-29T01:29:55;1.27;;;1.07;;
9809;SDS011;4944;52.514;13.192;2022-12-29T01:32:22;1.30;;;1.20;;
9809;SDS011;4944;52.514;13.192;2022-12-29T01:34:49;1.33;;;1.23;;
9809;SDS011;4944;52.514;13.192;2022-12-29T01:37:16;1.47;;;1.37;;
9809;SDS011;4944;52.514;13.192;2022-12-29T01:39:44;1.60;;;1.10;;
9809;SDS011;4944;52.514;13.192;2022-12-29T01:42:12;1.07;;;1.07;;
9809;SDS011;4944;52.514;13.192;2022-12-29T01:44:47;1.50;;;1.50;;
9809;SDS011;4944;52.514;13.192;2022-12-29T01:47:18;2.77;;;1.50;;
9809;SDS011;4944;52.514;13.192;2022-12-29T01:49:51;1.13;;;1.07;;
9809;SDS011;4944;52.514;13.192;2022-12-29T01:52:20;1.10;;;1.10;;
9809;SDS011;4944;52.514;13.192;2022-12-29T01:54:52;1.47;;;1.30;;
9809;SDS011;4944;52.514;13.192;2022-12-29T01:57:21;3.27;;;1.20;;
9809;SDS011;4944;52.514;13.192;2022-12-29T01:59:52;1.30;;;1.20;;
9809;SDS011;4944;52.514;13.192;2022-12-29T02:02:23;2.83;;;1.10;;
9809;SDS011;4944;52.514;13.192;2022-12-29T02:04:50;1.30;;;1.30;;
9809;SDS011;4944;52.514;13.192;2022-12-29T02:07:19;2.83;;;1.40;;
9809;SDS011;4944;52.514;13.192;2022-12-29T02:09:50;1.27;;;1.17;;
9809;SDS011;4944;52.514;13.192;2022-12-29T02:12:20;1.63;;;1.37;;
9809;SDS011;4944;52.514;13.192;2022-12-29T02:14:49;2.30;;;1.33;;
9809;SDS011;4944;52.514;13.192;2022-12-29T02:17:20;1.60;;;1.30;;
9809;SDS011;4944;52.514;13.192;2022-12-29T02:23:07;1.23;;;1.10;;
9809;SDS011;4944;52.514;13.192;2022-12-29T02:29:08;1.20;;;1.20;;
9809;SDS011;4944;52.514;13.192;2022-12-29T02:32:05;1.77;;;1.43;;
9809;SDS011;4944;52.514;13.192;2022-12-29T02:34:42;1.27;;;1.17;;
9809;SDS011;4944;52.514;13.192;2022-12-29T02:37:17;3.70;;;1.20;;
9809;SDS011;4944;52.514;13.192;2022-12-29T02:39:50;1.20;;;1.10;;
9809;SDS011;4944;52.514;13.192;2022-12-29T02:42:24;1.20;;;1.20;;
9809;SDS011;4944;52.514;13.192;2022-12-29T02:44:59;0.80;;;0.80;;
9809;SDS011;4944;52.514;13.192;2022-12-29T02:47:35;1.30;;;1.30;;
9809;SDS011;4944;52.514;13.192;2022-12-29T02:50:07;1.20;;;1.20;;
9809;SDS011;4944;52.514;13.192;2022-12-29T02:52:39;1.00;;;1.00;;
9809;SDS011;4944;52.514;13.192;2022-12-29T02:55:10;4.73;;;1.20;;
9809;SDS011;4944;52.514;13.192;2022-12-29T02:57:36;1.47;;;1.20;;
9809;SDS011;4944;52.514;13.192;2022-12-29T03:00:04;1.43;;;1.20;;
9809;SDS011;4944;52.514;13.192;2022-12-29T03:02:39;1.17;;;1.07;;
9809;SDS011;4944;52.514;13.192;2022-12-29T03:05:30;2.30;;;1.00;;
9809;SDS011;4944;52.514;13.192;2022-12-29T03:08:19;1.53;;;1.10;;
9809;SDS011;4944;52.514;13.192;2022-12-29T03:10:55;1.43;;;1.33;;
9809;SDS011;4944;52.514;13.192;2022-12-29T03:13:28;1.00;;;1.00;;
9809;SDS011;4944;52.514;13.192;2022-12-29T03:16:20;1.10;;;1.00;;
9809;SDS011;4944;52.514;13.192;2022-12-29T03:18:53;1.40;;;1.30;;
9809;SDS011;4944;52.514;13.192;2022-12-29T03:21:29;1.43;;;0.87;;
9809;SDS011;4944;52.514;13.192;2022-12-29T03:24:17;2.10;;;1.20;;
9809;SDS011;4944;52.514;13.192;2022-12-29T03:26:46;1.10;;;1.00;;
9809;SDS011;4944;52.514;13.192;2022-12-29T03:29:15;1.40;;;1.30;;
9809;SDS011;4944;52.514;13.192;2022-12-29T03:31:44;1.13;;;1.00;;
9809;SDS011;4944;52.514;13.192;2022-12-29T03:34:13;1.20;;;1.10;;
9809;SDS011;4944;52.514;13.192;2022-12-29T03:36:43;1.30;;;1.00;;
9809;SDS011;4944;52.514;13.192;2022-12-29T03:39:19;1.17;;;1.00;;
9809;SDS011;4944;52.514;13.192;2022-12-29T03:41:50;1.27;;;1.27;;
9809;SDS011;4944;52.514;13.192;2022-12-29T03:44:22;1.20;;;1.20;;
9809;SDS011;4944;52.514;13.192;2022-12-29T03:46:58;1.53;;;1.30;;
9809;SDS011;4944;52.514;13.192;2022-12-29T03:49:26;2.93;;;1.40;;
9809;SDS011;4944;52.514;13.192;2022-12-29T03:51:53;2.17;;;1.00;;
9809;SDS011;4944;52.514;13.192;2022-12-29T03:54:20;1.80;;;1.30;;
9809;SDS011;4944;52.514;13.192;2022-12-29T03:56:47;1.30;;;1.20;;
9809;SDS011;4944;52.514;13.192;2022-12-29T03:59:14;1.13;;;0.80;;
9809;SDS011;4944;52.514;13.192;2022-12-29T04:01:41;2.13;;;1.40;;
9809;SDS011;4944;52.514;13.192;2022-12-29T04:04:08;1.13;;;1.13;;
9809;SDS011;4944;52.514;13.192;2022-12-29T04:06:36;1.30;;;1.20;;
9809;SDS011;4944;52.514;13.192;2022-12-29T04:09:03;1.10;;;1.00;;
9809;SDS011;4944;52.514;13.192;2022-12-29T04:11:30;1.30;;;1.20;;
9809;SDS011;4944;52.514;13.192;2022-12-29T04:13:57;0.90;;;0.90;;
9809;SDS011;4944;52.514;13.192;2022-12-29T04:16:24;1.10;;;1.10;;
9809;SDS011;4944;52.514;13.192;2022-12-29T04:18:51;1.37;;;1.30;;
9809;SDS011;4944;52.514;13.192;2022-12-29T04:21:17;1.30;;;1.20;;
9809;SDS011;4944;52.514;13.192;2022-12-29T04:23:45;1.27;;;1.10;;
9809;SDS011;4944;52.514;13.192;2022-12-29T04:26:11;1.30;;;1.20;;
9809;SDS011;4944;52.514;13.192;2022-12-29T04:28:38;1.00;;;1.00;;
9809;SDS011;4944;52.514;13.192;2022-12-29T04:31:05;1.20;;;1.20;;
9809;SDS011;4944;52.514;13.192;2022-12-29T04:33:32;2.13;;;1.50;;
9809;SDS011;4944;52.514;13.192;2022-12-29T04:35:59;1.03;;;0.90;;
9809;SDS011;4944;52.514;13.192;2022-12-29T04:38:26;1.73;;;1.30;;
9809;SDS011;4944;52.514;13.192;2022-12-29T04:40:54;1.10;;;0.97;;
9809;SDS011;4944;52.514;13.192;2022-12-29T04:43:21;1.10;;;1.10;;
9809;SDS011;4944;52.514;13.192;2022-12-29T04:45:48;1.40;;;1.27;;
9809;SDS011;4944;52.514;13.192;2022-12-29T04:48:15;1.10;;;1.10;;
9809;SDS011;4944;52.514;13.192;2022-12-29T04:50:42;1.40;;;1.00;;
9809;SDS011;4944;52.514;13.192;2022-12-29T04:53:09;3.17;;;1.17;;
9809;SDS011;4944;52.514;13.192;2022-12-29T04:55:36;1.40;;;1.30;;
9809;SDS011;4944;52.514;13.192;2022-12-29T04:58:05;1.80;;;1.23;;
9809;SDS011;4944;52.514;13.192;2022-12-29T05:00:32;0.90;;;0.90;;
9809;SDS011;4944;52.514;13.192;2022-12-29T05:02:59;3.03;;;1.10;;
9809;SDS011;4944;52.514;13.192;2022-12-29T05:05:26;1.30;;;1.20;;
9809;SDS011;4944;52.514;13.192;2022-12-29T05:07:53;1.57;;;1.40;;
9809;SDS011;4944;52.514;13.192;2022-12-29T05:10:20;1.27;;;0.77;;
9809;SDS011;4944;52.514;13.192;2022-12-29T05:12:47;0.97;;;0.97;;
9809;SDS011;4944;52.514;13.192;2022-12-29T05:15:15;1.67;;;1.50;;
9809;SDS011;4944;52.514;13.192;2022-12-29T05:17:42;1.37;;;1.30;;
9809;SDS011;4944;52.514;13.192;2022-12-29T05:20:09;1.37;;;1.30;;
9809;SDS011;4944;52.514;13.192;2022-12-29T05:22:36;1.30;;;1.20;;
9809;SDS011;4944;52.514;13.192;2022-12-29T05:25:04;2.10;;;1.10;;
9809;SDS011;4944;52.514;13.192;2022-12-29T05:27:31;2.13;;;1.13;;
9809;SDS011;4944;52.514;13.192;2022-12-29T05:29:58;1.67;;;1.57;;
9809;SDS011;4944;52.514;13.192;2022-12-29T05:32:26;1.90;;;1.13;;
9809;SDS011;4944;52.514;13.192;2022-12-29T05:34:53;1.33;;;1.23;;
9809;SDS011;4944;52.514;13.192;2022-12-29T05:37:20;1.10;;;1.00;;
9809;SDS011;4944;52.514;13.192;2022-12-29T05:39:47;1.03;;;1.00;;
9809;SDS011;4944;52.514;13.192;2022-12-29T05:42:14;1.90;;;1.30;;
9809;SDS011;4944;52.514;13.192;2022-12-29T05:44:40;1.57;;;1.20;;
9809;SDS011;4944;52.514;13.192;2022-12-29T05:47:07;1.23;;;1.17;;
9809;SDS011;4944;52.514;13.192;2022-12-29T05:49:35;2.37;;;1.30;;
9809;SDS011;4944;52.514;13.192;2022-12-29T05:52:02;1.20;;;1.10;;
9809;SDS011;4944;52.514;13.192;2022-12-29T05:54:30;1.43;;;1.33;;
9809;SDS011;4944;52.514;13.192;2022-12-29T05:56:56;1.43;;;1.20;;
9809;SDS011;4944;52.514;13.192;2022-12-29T05:59:23;1.20;;;1.10;;
9809;SDS011;4944;52.514;13.192;2022-12-29T06:01:50;1.00;;;1.00;;
9809;SDS011;4944;52.514;13.192;2022-12-29T06:04:17;1.43;;;1.20;;
9809;SDS011;4944;52.514;13.192;2022-12-29T06:06:45;0.93;;;0.93;;
9809;SDS011;4944;52.514;13.192;2022-12-29T06:09:12;1.23;;;1.13;;
9809;SDS011;4944;52.514;13.192;2022-12-29T06:11:39;2.77;;;1.40;;
9809;SDS011;4944;52.514;13.192;2022-12-29T06:14:06;1.00;;;0.90;;
9809;SDS011;4944;52.514;13.192;2022-12-29T06:16:33;1.80;;;1.17;;
9809;SDS011;4944;52.514;13.192;2022-12-29T06:19:01;1.20;;;1.10;;
9809;SDS011;4944;52.514;13.192;2022-12-29T06:21:27;1.00;;;1.00;;
9809;SDS011;4944;52.514;13.192;2022-12-29T06:23:56;1.17;;;0.93;;
9809;SDS011;4944;52.514;13.192;2022-12-29T06:26:23;0.90;;;0.90;;
9809;SDS011;4944;52.514;13.192;2022-12-29T06:28:49;1.17;;;1.07;;
9809;SDS011;4944;52.514;13.192;2022-12-29T06:31:16;2.00;;;1.20;;
9809;SDS011;4944;52.514;13.192;2022-12-29T06:33:43;1.30;;;1.20;;
9809;SDS011;4944;52.514;13.192;2022-12-29T06:36:10;1.40;;;1.30;;
9809;SDS011;4944;52.514;13.192;2022-12-29T06:38:37;1.20;;;1.10;;
9809;SDS011;4944;52.514;13.192;2022-12-29T06:41:05;1.40;;;1.30;;
9809;SDS011;4944;52.514;13.192;2022-12-29T06:43:32;1.07;;;1.07;;
9809;SDS011;4944;52.514;13.192;2022-12-29T06:46:00;3.03;;;1.10;;
9809;SDS011;4944;52.514;13.192;2022-12-29T06:48:27;1.13;;;1.10;;
9809;SDS011;4944;52.514;13.192;2022-12-29T06:50:54;1.10;;;1.07;;
9809;SDS011;4944;52.514;13.192;2022-12-29T06:53:21;0.83;;;0.83;;
9809;SDS011;4944;52.514;13.192;2022-12-29T06:55:48;1.10;;;1.03;;
9809;SDS011;4944;52.514;13.192;2022-12-29T06:58:16;1.10;;;1.10;;
9809;SDS011;4944;52.514;13.192;2022-12-29T07:00:43;0.80;;;0.80;;
9809;SDS011;4944;52.514;13.192;2022-12-29T07:03:10;0.80;;;0.80;;
9809;SDS011;4944;52.514;13.192;2022-12-29T07:05:37;1.07;;;1.07;;
9809;SDS011;4944;52.514;13.192;2022-12-29T07:08:04;1.00;;;1.00;;
9809;SDS011;4944;52.514;13.192;2022-12-29T07:10:31;1.30;;;0.90;;
9809;SDS011;4944;52.514;13.192;2022-12-29T07:12:58;0.90;;;0.90;;
9809;SDS011;4944;52.514;13.192;2022-12-29T07:15:26;1.00;;;0.90;;
9809;SDS011;4944;52.514;13.192;2022-12-29T07:17:53;1.90;;;1.17;;
9809;SDS011;4944;52.514;13.192;2022-12-29T07:20:20;0.80;;;0.80;;
9809;SDS011;4944;52.514;13.192;2022-12-29T07:22:47;1.40;;;1.30;;
9809;SDS011;4944;52.514;13.192;2022-12-29T07:25:14;1.03;;;1.03;;
9809;SDS011;4944;52.514;13.192;2022-12-29T07:27:41;0.77;;;0.77;;
9809;SDS011;4944;52.514;13.192;2022-12-29T07:30:08;1.23;;;1.13;;
9809;SDS011;4944;52.514;13.192;2022-12-29T07:32:37;1.03;;;1.00;;
9809;SDS011;4944;52.514;13.192;2022-12-29T07:35:04;1.03;;;1.00;;
9809;SDS011;4944;52.514;13.192;2022-12-29T07:37:32;0.90;;;0.90;;
9809;SDS011;4944;52.514;13.192;2022-12-29T07:40:00;1.10;;;1.00;;
9809;SDS011;4944;52.514;13.192;2022-12-29T07:42:28;1.47;;;1.03;;
9809;SDS011;4944;52.514;13.192;2022-12-29T07:44:55;2.03;;;1.20;;
9809;SDS011;4944;52.514;13.192;2022-12-29T07:47:22;1.50;;;0.90;;
9809;SDS011;4944;52.514;13.192;2022-12-29T07:49:50;0.80;;;0.80;;
9809;SDS011;4944;52.514;13.192;2022-12-29T07:52:17;1.00;;;1.00;;
9809;SDS011;4944;52.514;13.192;2022-12-29T07:54:44;0.60;;;0.60;;
9809;SDS011;4944;52.514;13.192;2022-12-29T07:57:11;1.40;;;0.97;;
9809;SDS011;4944;52.514;13.192;2022-12-29T07:59:38;1.27;;;0.90;;
9809;SDS011;4944;52.514;13.192;2022-12-29T08:02:04;1.07;;;1.07;;
9809;SDS011;4944;52.514;13.192;2022-12-29T08:04:31;0.83;;;0.83;;
9809;SDS011;4944;52.514;13.192;2022-12-29T08:07:00;0.97;;;0.90;;
9809;SDS011;4944;52.514;13.192;2022-12-29T08:09:27;1.00;;;1.00;;
9809;SDS011;4944;52.514;13.192;2022-12-29T08:11:54;0.77;;;0.77;;
9809;SDS011;4944;52.514;13.192;2022-12-29T08:14:21;1.23;;;1.03;;
9809;SDS011;4944;52.514;13.192;2022-12-29T08:16:47;1.20;;;0.97;;
9809;SDS011;4944;52.514;13.192;2022-12-29T08:19:14;0.90;;;0.90;;
9809;SDS011;4944;52.514;13.192;2022-12-29T08:21:41;0.80;;;0.80;;
9809;SDS011;4944;52.514;13.192;2022-12-29T08:24:10;2.00;;;1.00;;
9809;SDS011;4944;52.514;13.192;2022-12-29T08:26:37;0.97;;;0.97;;
9809;SDS011;4944;52.514;13.192;2022-12-29T08:29:04;0.90;;;0.90;;
9809;SDS011;4944;52.514;13.192;2022-12-29T08:31:30;1.37;;;1.00;;
9809;SDS011;4944;52.514;13.192;2022-12-29T08:33:57;0.90;;;0.77;;
9809;SDS011;4944;52.514;13.192;2022-12-29T08:36:26;0.70;;;0.70;;
9809;SDS011;4944;52.514;13.192;2022-12-29T08:38:53;0.97;;;0.80;;
9809;SDS011;4944;52.514;13.192;2022-12-29T08:41:21;0.90;;;0.90;;
9809;SDS011;4944;52.514;13.192;2022-12-29T08:43:48;1.50;;;1.00;;
9809;SDS011;4944;52.514;13.192;2022-12-29T08:46:16;0.97;;;0.83;;
9809;SDS011;4944;52.514;13.192;2022-12-29T08:48:43;0.93;;;0.93;;
9809;SDS011;4944;52.514;13.192;2022-12-29T08:51:10;1.20;;;1.10;;
9809;SDS011;4944;52.514;13.192;2022-12-29T08:53:37;0.90;;;0.90;;
9809;SDS011;4944;52.514;13.192;2022-12-29T08:56:04;0.87;;;0.87;;
9809;SDS011;4944;52.514;13.192;2022-12-29T08:58:33;0.60;;;0.60;;
9809;SDS011;4944;52.514;13.192;2022-12-29T09:01:00;0.73;;;0.73;;
9809;SDS011;4944;52.514;13.192;2022-12-29T09:03:27;1.00;;;1.00;;
9809;SDS011;4944;52.514;13.192;2022-12-29T09:05:54;1.00;;;1.00;;
9809;SDS011;4944;52.514;13.192;2022-12-29T09:08:22;0.87;;;0.87;;
9809;SDS011;4944;52.514;13.192;2022-12-29T09:10:49;0.93;;;0.93;;
9809;SDS011;4944;52.514;13.192;2022-12-29T09:13:16;1.00;;;0.93;;
9809;SDS011;4944;52.514;13.192;2022-12-29T09:15:45;1.60;;;0.93;;
9809;SDS011;4944;52.514;13.192;2022-12-29T09:18:12;2.60;;;1.30;;
9809;SDS011;4944;52.514;13.192;2022-12-29T09:20:39;3.00;;;2.43;;
9809;SDS011;4944;52.514;13.192;2022-12-29T09:23:06;0.97;;;0.80;;
9809;SDS011;4944;52.514;13.192;2022-12-29T09:25:33;2.37;;;1.10;;
9809;SDS011;4944;52.514;13.192;2022-12-29T09:28:00;0.90;;;0.90;;
9809;SDS011;4944;52.514;13.192;2022-12-29T09:30:32;1.10;;;1.00;;
9809;SDS011;4944;52.514;13.192;2022-12-29T09:33:00;1.47;;;0.90;;
9809;SDS011;4944;52.514;13.192;2022-12-29T09:35:27;1.50;;;1.00;;
9809;SDS011;4944;52.514;13.192;2022-12-29T09:37:54;0.90;;;0.73;;
9809;SDS011;4944;52.514;13.192;2022-12-29T09:40:26;1.17;;;1.07;;
9809;SDS011;4944;52.514;13.192;2022-12-29T09:43:01;1.03;;;0.93;;
9809;SDS011;4944;52.514;13.192;2022-12-29T09:45:51;0.80;;;0.80;;
9809;SDS011;4944;52.514;13.192;2022-12-29T09:48:27;0.57;;;0.57;;
9809;SDS011;4944;52.514;13.192;2022-12-29T09:50:58;0.53;;;0.53;;
9809;SDS011;4944;52.514;13.192;2022-12-29T09:53:29;0.87;;;0.87;;
9809;SDS011;4944;52.514;13.192;2022-12-29T09:56:02;1.10;;;1.00;;
9809;SDS011;4944;52.514;13.192;2022-12-29T09:58:37;1.30;;;1.03;;
9809;SDS011;4944;52.514;13.192;2022-12-29T10:01:21;0.80;;;0.80;;
9809;SDS011;4944;52.514;13.192;2022-12-29T10:03:56;0.90;;;0.90;;
9809;SDS011;4944;52.514;13.192;2022-12-29T10:06:25;1.27;;;0.67;;
9809;SDS011;4944;52.514;13.192;2022-12-29T10:08:57;0.93;;;0.93;;
9809;SDS011;4944;52.514;13.192;2022-12-29T10:11:32;0.90;;;0.70;;
9809;SDS011;4944;52.514;13.192;2022-12-29T10:14:14;1.83;;;1.10;;
9809;SDS011;4944;52.514;13.192;2022-12-29T10:16:57;1.90;;;1.00;;
9809;SDS011;4944;52.514;13.192;2022-12-29T10:22:24;0.67;;;0.67;;
9809;SDS011;4944;52.514;13.192;2022-12-29T10:24:58;0.80;;;0.80;;
9809;SDS011;4944;52.514;13.192;2022-12-29T10:27:29;1.30;;;0.90;;
9809;SDS011;4944;52.514;13.192;2022-12-29T10:29:59;0.87;;;0.80;;
9809;SDS011;4944;52.514;13.192;2022-12-29T10:32:29;1.37;;;1.00;;
9809;SDS011;4944;52.514;13.192;2022-12-29T10:35:03;0.87;;;0.80;;
9809;SDS011;4944;52.514;13.192;2022-12-29T10:37:38;0.83;;;0.80;;
9809;SDS011;4944;52.514;13.192;2022-12-29T10:40:13;0.60;;;0.60;;
9809;SDS011;4944;52.514;13.192;2022-12-29T10:42:46;0.87;;;0.80;;
9809;SDS011;4944;52.514;13.192;2022-12-29T10:45:17;1.63;;;0.70;;
9809;SDS011;4944;52.514;13.192;2022-12-29T10:47:48;0.80;;;0.40;;
9809;SDS011;4944;52.514;13.192;2022-12-29T10:50:21;0.57;;;0.57;;
9809;SDS011;4944;52.514;13.192;2022-12-29T10:52:49;1.80;;;0.90;;
9809;SDS011;4944;52.514;13.192;2022-12-29T10:55:17;0.67;;;0.67;;
9809;SDS011;4944;52.514;13.192;2022-12-29T10:57:47;0.50;;;0.50;;
9809;SDS011;4944;52.514;13.192;2022-12-29T11:00:16;1.50;;;0.80;;
9809;SDS011;4944;52.514;13.192;2022-12-29T11:02:55;0.70;;;0.50;;
9809;SDS011;4944;52.514;13.192;2022-12-29T11:05:43;0.60;;;0.60;;
9809;SDS011;4944;52.514;13.192;2022-12-29T11:08:16;0.60;;;0.60;;
9809;SDS011;4944;52.514;13.192;2022-12-29T11:10:45;0.93;;;0.93;;
9809;SDS011;4944;52.514;13.192;2022-12-29T11:13:25;3.60;;;0.80;;
9809;SDS011;4944;52.514;13.192;2022-12-29T11:15:53;0.60;;;0.60;;
9809;SDS011;4944;52.514;13.192;2022-12-29T11:18:21;0.93;;;0.70;;
9809;SDS011;4944;52.514;13.192;2022-12-29T11:20:51;1.50;;;0.80;;
9809;SDS011;4944;52.514;13.192;2022-12-29T11:23:27;1.37;;;1.17;;
9809;SDS011;4944;52.514;13.192;2022-12-29T11:26:16;1.33;;;0.80;;
9809;SDS011;4944;52.514;13.192;2022-12-29T11:28:46;0.57;;;0.57;;
9809;SDS011;4944;52.514;13.192;2022-12-29T11:31:30;0.70;;;0.67;;
9809;SDS011;4944;52.514;13.192;2022-12-29T11:33:56;1.10;;;0.77;;
9809;SDS011;4944;52.514;13.192;2022-12-29T11:36:25;1.23;;;0.60;;
9809;SDS011;4944;52.514;13.192;2022-12-29T11:38:54;1.27;;;0.80;;
9809;SDS011;4944;52.514;13.192;2022-12-29T11:41:22;0.80;;;0.80;;
9809;SDS011;4944;52.514;13.192;2022-12-29T11:43:51;1.33;;;0.70;;
9809;SDS011;4944;52.514;13.192;2022-12-29T11:46:20;1.60;;;0.63;;
9809;SDS011;4944;52.514;13.192;2022-12-29T11:48:50;4.03;;;0.70;;
9809;SDS011;4944;52.514;13.192;2022-12-29T11:51:21;4.33;;;0.83;;
9809;SDS011;4944;52.514;13.192;2022-12-29T11:53:51;0.93;;;0.70;;
9809;SDS011;4944;52.514;13.192;2022-12-29T11:56:32;0.60;;;0.60;;
9809;SDS011;4944;52.514;13.192;2022-12-29T12:02:10;0.43;;;0.43;;
9809;SDS011;4944;52.514;13.192;2022-12-29T12:05:04;0.30;;;0.30;;
9809;SDS011;4944;52.514;13.192;2022-12-29T12:07:39;0.50;;;0.50;;
9809;SDS011;4944;52.514;13.192;2022-12-29T12:10:18;0.83;;;0.50;;
9809;SDS011;4944;52.514;13.192;2022-12-29T12:12:50;1.03;;;0.50;;
9809;SDS011;4944;52.514;13.192;2022-12-29T12:15:20;0.80;;;0.80;;
9809;SDS011;4944;52.514;13.192;2022-12-29T12:17:53;0.90;;;0.90;;
9809;SDS011;4944;52.514;13.192;2022-12-29T12:20:26;0.60;;;0.60;;
9809;SDS011;4944;52.514;13.192;2022-12-29T12:23:06;0.40;;;0.40;;
9809;SDS011;4944;52.514;13.192;2022-12-29T12:25:40;0.53;;;0.40;;
9809;SDS011;4944;52.514;13.192;2022-12-29T12:28:15;1.73;;;0.50;;
9809;SDS011;4944;52.514;13.192;2022-12-29T12:30:47;0.83;;;0.70;;
9809;SDS011;4944;52.514;13.192;2022-12-29T12:33:18;0.80;;;0.70;;
9809;SDS011;4944;52.514;13.192;2022-12-29T12:35:53;0.70;;;0.60;;
9809;SDS011;4944;52.514;13.192;2022-12-29T12:38:32;0.40;;;0.40;;
9809;SDS011;4944;52.514;13.192;2022-12-29T12:41:10;3.50;;;0.77;;
9809;SDS011;4944;52.514;13.192;2022-12-29T12:43:41;1.10;;;0.50;;
9809;SDS011;4944;52.514;13.192;2022-12-29T12:49:21;0.70;;;0.57;;
9809;SDS011;4944;52.514;13.192;2022-12-29T12:52:14;0.50;;;0.40;;
9809;SDS011;4944;52.514;13.192;2022-12-29T12:54:55;0.43;;;0.43;;
9809;SDS011;4944;52.514;13.192;2022-12-29T12:57:40;1.00;;;0.73;;
9809;SDS011;4944;52.514;13.192;2022-12-29T13:00:19;0.40;;;0.40;;
9809;SDS011;4944;52.514;13.192;2022-12-29T13:02:52;0.47;;;0.30;;
9809;SDS011;4944;52.514;13.192;2022-12-29T13:05:32;0.40;;;0.40;;
9809;SDS011;4944;52.514;13.192;2022-12-29T13:08:19;0.60;;;0.60;;
9809;SDS011;4944;52.514;13.192;2022-12-29T13:11:08;0.83;;;0.63;;
9809;SDS011;4944;52.514;13.192;2022-12-29T13:13:51;0.83;;;0.40;;
9809;SDS011;4944;52.514;13.192;2022-12-29T13:16:32;0.47;;;0.47;;
9809;SDS011;4944;52.514;13.192;2022-12-29T13:19:08;0.60;;;0.60;;
9809;SDS011;4944;52.514;13.192;2022-12-29T13:21:49;0.50;;;0.50;;
9809;SDS011;4944;52.514;13.192;2022-12-29T13:24:26;0.90;;;0.60;;
9809;SDS011;4944;52.514;13.192;2022-12-29T13:27:04;1.80;;;0.43;;
9809;SDS011;4944;52.514;13.192;2022-12-29T13:29:43;0.50;;;0.50;;
9809;SDS011;4944;52.514;13.192;2022-12-29T13:32:19;0.70;;;0.70;;
9809;SDS011;4944;52.514;13.192;2022-12-29T13:34:56;0.83;;;0.47;;
9809;SDS011;4944;52.514;13.192;2022-12-29T13:37:34;0.47;;;0.47;;
9809;SDS011;4944;52.514;13.192;2022-12-29T13:40:10;0.83;;;0.50;;
9809;SDS011;4944;52.514;13.192;2022-12-29T13:42:41;0.53;;;0.53;;
9809;SDS011;4944;52.514;13.192;2022-12-29T13:45:11;0.83;;;0.70;;
9809;SDS011;4944;52.514;13.192;2022-12-29T13:47:44;0.70;;;0.70;;
9809;SDS011;4944;52.514;13.192;2022-12-29T13:50:18;1.40;;;0.50;;
9809;SDS011;4944;52.514;13.192;2022-12-29T13:52:48;1.57;;;0.60;;
9809;SDS011;4944;52.514;13.192;2022-12-29T13:55:24;0.63;;;0.63;;
9809;SDS011;4944;52.514;13.192;2022-12-29T13:57:58;0.90;;;0.50;;
9809;SDS011;4944;52.514;13.192;2022-12-29T14:00:45;0.73;;;0.70;;
9809;SDS011;4944;52.514;13.192;2022-12-29T14:03:19;0.80;;;0.80;;
9809;SDS011;4944;52.514;13.192;2022-12-29T14:06:05;0.93;;;0.83;;
9809;SDS011;4944;52.514;13.192;2022-12-29T14:08:40;1.50;;;1.10;;
9809;SDS011;4944;52.514;13.192;2022-12-29T14:11:07;1.00;;;0.90;;
9809;SDS011;4944;52.514;13.192;2022-12-29T14:13:39;1.60;;;0.90;;
9809;SDS011;4944;52.514;13.192;2022-12-29T14:16:12;2.00;;;1.20;;
9809;SDS011;4944;52.514;13.192;2022-12-29T14:18:53;1.53;;;0.90;;
9809;SDS011;4944;52.514;13.192;2022-12-29T14:21:23;1.90;;;1.23;;
9809;SDS011;4944;52.514;13.192;2022-12-29T14:23:56;0.97;;;0.97;;
9809;SDS011;4944;52.514;13.192;2022-12-29T14:26:43;1.10;;;1.00;;
9809;SDS011;4944;52.514;13.192;2022-12-29T14:29:16;0.90;;;0.90;;
9809;SDS011;4944;52.514;13.192;2022-12-29T14:31:59;0.80;;;0.80;;
9809;SDS011;4944;52.514;13.192;2022-12-29T14:34:30;1.10;;;0.90;;
9809;SDS011;4944;52.514;13.192;2022-12-29T14:37:04;1.70;;;0.70;;
9809;SDS011;4944;52.514;13.192;2022-12-29T14:39:54;1.60;;;1.07;;
9809;SDS011;4944;52.514;13.192;2022-12-29T14:42:30;1.57;;;0.73;;
9809;SDS011;4944;52.514;13.192;2022-12-29T14:44:58;1.90;;;1.40;;
9809;SDS011;4944;52.514;13.192;2022-12-29T14:47:32;0.97;;;0.93;;
9809;SDS011;4944;52.514;13.192;2022-12-29T14:50:03;2.43;;;1.17;;
9809;SDS011;4944;52.514;13.192;2022-12-29T14:52:32;1.70;;;1.47;;
9809;SDS011;4944;52.514;13.192;2022-12-29T14:58:04;1.20;;;1.03;;
9809;SDS011;4944;52.514;13.192;2022-12-29T15:00:32;1.23;;;1.10;;
9809;SDS011;4944;52.514;13.192;2022-12-29T15:03:04;0.73;;;0.73;;
9809;SDS011;4944;52.514;13.192;2022-12-29T15:05:34;0.80;;;0.80;;
9809;SDS011;4944;52.514;13.192;2022-12-29T15:08:06;1.13;;;0.47;;
9809;SDS011;4944;52.514;13.192;2022-12-29T15:10:35;0.93;;;0.70;;
9809;SDS011;4944;52.514;13.192;2022-12-29T15:13:13;0.50;;;0.50;;
9809;SDS011;4944;52.514;13.192;2022-12-29T15:15:42;1.17;;;0.63;;
9809;SDS011;4944;52.514;13.192;2022-12-29T15:18:23;2.03;;;0.57;;
9809;SDS011;4944;52.514;13.192;2022-12-29T15:20:51;2.13;;;0.80;;
9809;SDS011;4944;52.514;13.192;2022-12-29T15:23:21;2.53;;;0.90;;
9809;SDS011;4944;52.514;13.192;2022-12-29T15:25:50;0.77;;;0.60;;
9809;SDS011;4944;52.514;13.192;2022-12-29T15:28:20;1.80;;;0.70;;
9809;SDS011;4944;52.514;13.192;2022-12-29T15:30:52;0.70;;;0.70;;
9809;SDS011;4944;52.514;13.192;2022-12-29T15:33:23;1.03;;;1.00;;
9809;SDS011;4944;52.514;13.192;2022-12-29T15:35:53;1.40;;;1.10;;
9809;SDS011;4944;52.514;13.192;2022-12-29T15:38:21;0.83;;;0.83;;
9809;SDS011;4944;52.514;13.192;2022-12-29T15:40:52;0.57;;;0.57;;
9809;SDS011;4944;52.514;13.192;2022-12-29T15:43:27;0.83;;;0.83;;